Terminal Aerodrome Forecast
Issued by NWS

Home | Current Version | Previous Version | Graphics & Text | Print | Product List | Glossary On
Versions: 1 2 3 4 5 6 7 8 9 10 11 12 13 14 15 16 17 18 19 20 21 22 23 24 25 26
000
FTUS43 KABR 292300
TAFATY
TAF
KATY 292329Z 3000/3024 32008KT P6SM VCSH BKN100
     FM300500 34008KT 2SM BR BKN007
     FM301400 VRB05KT P6SM BKN015
     FM301900 VRB05KT P6SM SCT015=

USA.gov is the U.S. government's official web portal to all federal, state and local government web resources and services.